sensor_id;sensor_type;location;lat;lon;timestamp;temperature;humidity
752;DHT22;360;48.764;9.164;2022-11-15T00:00:45;8.50;99.90
752;DHT22;360;48.764;9.164;2022-11-15T00:03:13;8.50;99.90
752;DHT22;360;48.764;9.164;2022-11-15T00:05:40;8.50;99.90
752;DHT22;360;48.764;9.164;2022-11-15T00:08:07;8.50;99.90
752;DHT22;360;48.764;9.164;2022-11-15T00:10:34;8.60;99.90
752;DHT22;360;48.764;9.164;2022-11-15T00:13:04;8.50;99.90
752;DHT22;360;48.764;9.164;2022-11-15T00:15:31;8.50;99.90
752;DHT22;360;48.764;9.164;2022-11-15T00:17:59;8.50;99.90
752;DHT22;360;48.764;9.164;2022-11-15T00:20:26;8.60;99.90
752;DHT22;360;48.764;9.164;2022-11-15T00:22:53;8.60;99.90
752;DHT22;360;48.764;9.164;2022-11-15T00:25:20;8.60;99.90
752;DHT22;360;48.764;9.164;2022-11-15T00:27:46;8.60;99.90
752;DHT22;360;48.764;9.164;2022-11-15T00:30:13;8.60;99.90
752;DHT22;360;48.764;9.164;2022-11-15T00:32:40;8.60;99.90
752;DHT22;360;48.764;9.164;2022-11-15T00:35:08;8.60;99.90
752;DHT22;360;48.764;9.164;2022-11-15T00:37:35;8.60;99.90
752;DHT22;360;48.764;9.164;2022-11-15T00:40:02;8.70;99.90
752;DHT22;360;48.764;9.164;2022-11-15T00:42:29;8.70;99.90
752;DHT22;360;48.764;9.164;2022-11-15T00:44:56;8.70;99.90
752;DHT22;360;48.764;9.164;2022-11-15T00:47:23;8.70;99.90
752;DHT22;360;48.764;9.164;2022-11-15T00:49:49;8.70;99.90
752;DHT22;360;48.764;9.164;2022-11-15T00:52:17;8.70;99.90
752;DHT22;360;48.764;9.164;2022-11-15T00:54:44;8.60;99.90
752;DHT22;360;48.764;9.164;2022-11-15T00:57:11;8.70;99.90
752;DHT22;360;48.764;9.164;2022-11-15T00:59:38;8.60;99.90
752;DHT22;360;48.764;9.164;2022-11-15T01:02:04;8.70;99.90
752;DHT22;360;48.764;9.164;2022-11-15T01:04:31;8.60;99.90
752;DHT22;360;48.764;9.164;2022-11-15T01:06:58;8.50;99.90
752;DHT22;360;48.764;9.164;2022-11-15T01:09:26;8.60;99.90
752;DHT22;360;48.764;9.164;2022-11-15T01:11:53;8.60;99.90
752;DHT22;360;48.764;9.164;2022-11-15T01:14:20;8.60;99.90
752;DHT22;360;48.764;9.164;2022-11-15T01:16:47;8.60;99.90
752;DHT22;360;48.764;9.164;2022-11-15T01:19:13;8.40;99.90
752;DHT22;360;48.764;9.164;2022-11-15T01:21:40;8.50;99.90
752;DHT22;360;48.764;9.164;2022-11-15T01:24:08;8.50;99.90
752;DHT22;360;48.764;9.164;2022-11-15T01:26:39;8.50;99.90
752;DHT22;360;48.764;9.164;2022-11-15T01:29:06;8.40;99.90
752;DHT22;360;48.764;9.164;2022-11-15T01:31:33;8.30;99.90
752;DHT22;360;48.764;9.164;2022-11-15T01:34:00;8.20;99.90
752;DHT22;360;48.764;9.164;2022-11-15T01:36:26;8.20;99.90
752;DHT22;360;48.764;9.164;2022-11-15T01:38:53;8.20;99.90
752;DHT22;360;48.764;9.164;2022-11-15T01:41:22;8.30;99.90
752;DHT22;360;48.764;9.164;2022-11-15T01:43:54;8.20;99.90
752;DHT22;360;48.764;9.164;2022-11-15T01:46:28;8.20;99.90
752;DHT22;360;48.764;9.164;2022-11-15T01:49:00;8.20;99.90
752;DHT22;360;48.764;9.164;2022-11-15T01:51:31;8.10;99.90
752;DHT22;360;48.764;9.164;2022-11-15T01:54:01;8.10;99.90
752;DHT22;360;48.764;9.164;2022-11-15T01:56:32;7.90;99.90
752;DHT22;360;48.764;9.164;2022-11-15T01:59:07;7.80;99.90
752;DHT22;360;48.764;9.164;2022-11-15T02:01:35;7.80;99.90
752;DHT22;360;48.764;9.164;2022-11-15T02:04:05;7.70;99.90
752;DHT22;360;48.764;9.164;2022-11-15T02:06:34;7.80;99.90
752;DHT22;360;48.764;9.164;2022-11-15T02:09:03;7.80;99.90
752;DHT22;360;48.764;9.164;2022-11-15T02:11:29;7.70;99.90
752;DHT22;360;48.764;9.164;2022-11-15T02:13:58;7.70;99.90
752;DHT22;360;48.764;9.164;2022-11-15T02:16:31;7.60;99.90
752;DHT22;360;48.764;9.164;2022-11-15T02:19:10;7.60;99.90
752;DHT22;360;48.764;9.164;2022-11-15T02:21:42;7.60;99.90
752;DHT22;360;48.764;9.164;2022-11-15T02:24:44;7.70;99.90
752;DHT22;360;48.764;9.164;2022-11-15T02:27:53;7.60;99.90
752;DHT22;360;48.764;9.164;2022-11-15T02:30:29;7.70;99.90
752;DHT22;360;48.764;9.164;2022-11-15T02:33:02;7.70;99.90
752;DHT22;360;48.764;9.164;2022-11-15T02:35:39;7.60;99.90
752;DHT22;360;48.764;9.164;2022-11-15T02:38:18;7.60;99.90
752;DHT22;360;48.764;9.164;2022-11-15T02:40:53;7.70;99.90
752;DHT22;360;48.764;9.164;2022-11-15T02:43:28;7.70;99.90
752;DHT22;360;48.764;9.164;2022-11-15T02:46:18;7.70;99.90
752;DHT22;360;48.764;9.164;2022-11-15T02:48:47;7.60;99.90
752;DHT22;360;48.764;9.164;2022-11-15T02:51:15;7.70;99.90
752;DHT22;360;48.764;9.164;2022-11-15T02:53:42;7.60;99.90
752;DHT22;360;48.764;9.164;2022-11-15T02:56:09;7.70;99.90
752;DHT22;360;48.764;9.164;2022-11-15T02:59:06;7.70;99.90
752;DHT22;360;48.764;9.164;2022-11-15T03:01:49;7.60;99.90
752;DHT22;360;48.764;9.164;2022-11-15T03:04:29;7.70;99.90
752;DHT22;360;48.764;9.164;2022-11-15T03:07:11;7.70;99.90
752;DHT22;360;48.764;9.164;2022-11-15T03:09:44;7.50;99.90
752;DHT22;360;48.764;9.164;2022-11-15T03:12:15;7.60;99.90
752;DHT22;360;48.764;9.164;2022-11-15T03:14:52;7.50;99.90
752;DHT22;360;48.764;9.164;2022-11-15T03:17:25;7.40;99.90
752;DHT22;360;48.764;9.164;2022-11-15T03:19:56;7.50;99.90
752;DHT22;360;48.764;9.164;2022-11-15T03:22:27;7.50;99.90
752;DHT22;360;48.764;9.164;2022-11-15T03:24:57;7.50;99.90
752;DHT22;360;48.764;9.164;2022-11-15T03:27:28;7.50;99.90
752;DHT22;360;48.764;9.164;2022-11-15T03:30:01;7.50;99.90
752;DHT22;360;48.764;9.164;2022-11-15T03:32:32;7.50;99.90
752;DHT22;360;48.764;9.164;2022-11-15T03:35:06;7.60;99.90
752;DHT22;360;48.764;9.164;2022-11-15T03:37:40;7.50;99.90
752;DHT22;360;48.764;9.164;2022-11-15T03:40:08;7.50;99.90
752;DHT22;360;48.764;9.164;2022-11-15T03:42:42;7.60;99.90
752;DHT22;360;48.764;9.164;2022-11-15T03:45:15;7.60;99.90
752;DHT22;360;48.764;9.164;2022-11-15T03:47:48;7.70;99.90
752;DHT22;360;48.764;9.164;2022-11-15T03:50:18;7.70;99.90
752;DHT22;360;48.764;9.164;2022-11-15T03:52:47;7.90;99.90
752;DHT22;360;48.764;9.164;2022-11-15T03:55:17;7.80;99.90
752;DHT22;360;48.764;9.164;2022-11-15T03:57:44;7.80;99.90
752;DHT22;360;48.764;9.164;2022-11-15T04:00:11;7.70;99.90
752;DHT22;360;48.764;9.164;2022-11-15T04:02:38;7.70;99.90
752;DHT22;360;48.764;9.164;2022-11-15T04:05:07;7.70;99.90
752;DHT22;360;48.764;9.164;2022-11-15T04:07:34;7.80;99.90
752;DHT22;360;48.764;9.164;2022-11-15T04:10:01;7.80;99.90
752;DHT22;360;48.764;9.164;2022-11-15T04:12:31;7.80;99.90
752;DHT22;360;48.764;9.164;2022-11-15T04:14:59;7.70;99.90
752;DHT22;360;48.764;9.164;2022-11-15T04:17:37;7.70;99.90
752;DHT22;360;48.764;9.164;2022-11-15T04:20:08;7.70;99.90
752;DHT22;360;48.764;9.164;2022-11-15T04:22:53;7.70;99.90
752;DHT22;360;48.764;9.164;2022-11-15T04:25:37;7.70;99.90
752;DHT22;360;48.764;9.164;2022-11-15T04:28:04;7.70;99.90
752;DHT22;360;48.764;9.164;2022-11-15T04:30:31;7.80;99.90
752;DHT22;360;48.764;9.164;2022-11-15T04:32:58;7.80;99.90
752;DHT22;360;48.764;9.164;2022-11-15T04:35:26;7.70;99.90
752;DHT22;360;48.764;9.164;2022-11-15T04:37:54;7.70;99.90
752;DHT22;360;48.764;9.164;2022-11-15T04:40:19;7.60;99.90
752;DHT22;360;48.764;9.164;2022-11-15T04:42:46;7.60;99.90
752;DHT22;360;48.764;9.164;2022-11-15T04:45:13;7.60;99.90
752;DHT22;360;48.764;9.164;2022-11-15T04:47:43;7.60;99.90
752;DHT22;360;48.764;9.164;2022-11-15T04:50:10;7.50;99.90
752;DHT22;360;48.764;9.164;2022-11-15T04:52:40;7.50;99.90
752;DHT22;360;48.764;9.164;2022-11-15T04:55:08;7.50;99.90
752;DHT22;360;48.764;9.164;2022-11-15T04:57:35;7.50;99.90
752;DHT22;360;48.764;9.164;2022-11-15T05:00:04;7.60;99.90
752;DHT22;360;48.764;9.164;2022-11-15T05:02:31;7.50;99.90
752;DHT22;360;48.764;9.164;2022-11-15T05:05:12;7.60;99.90
752;DHT22;360;48.764;9.164;2022-11-15T05:07:40;7.60;99.90
752;DHT22;360;48.764;9.164;2022-11-15T05:10:07;7.70;99.90
752;DHT22;360;48.764;9.164;2022-11-15T05:12:34;7.70;99.90
752;DHT22;360;48.764;9.164;2022-11-15T05:15:02;7.60;99.90
752;DHT22;360;48.764;9.164;2022-11-15T05:17:28;7.50;99.90
752;DHT22;360;48.764;9.164;2022-11-15T05:19:55;7.60;99.90
752;DHT22;360;48.764;9.164;2022-11-15T05:22:22;7.60;99.90
752;DHT22;360;48.764;9.164;2022-11-15T05:24:50;7.60;99.90
752;DHT22;360;48.764;9.164;2022-11-15T05:27:17;7.50;99.90
752;DHT22;360;48.764;9.164;2022-11-15T05:29:44;7.50;99.90
752;DHT22;360;48.764;9.164;2022-11-15T05:32:12;7.60;99.90
752;DHT22;360;48.764;9.164;2022-11-15T05:34:39;7.60;99.90
752;DHT22;360;48.764;9.164;2022-11-15T05:37:05;7.60;99.90
752;DHT22;360;48.764;9.164;2022-11-15T05:39:32;7.60;99.90
752;DHT22;360;48.764;9.164;2022-11-15T05:42:04;7.60;99.90
752;DHT22;360;48.764;9.164;2022-11-15T05:44:32;7.60;99.90
752;DHT22;360;48.764;9.164;2022-11-15T05:47:00;7.70;99.90
752;DHT22;360;48.764;9.164;2022-11-15T05:49:31;7.60;99.90
752;DHT22;360;48.764;9.164;2022-11-15T05:51:58;7.60;99.90
752;DHT22;360;48.764;9.164;2022-11-15T05:54:25;7.70;99.90
752;DHT22;360;48.764;9.164;2022-11-15T05:56:52;7.70;99.90
752;DHT22;360;48.764;9.164;2022-11-15T05:59:22;7.70;99.90
752;DHT22;360;48.764;9.164;2022-11-15T06:01:49;7.60;99.90
752;DHT22;360;48.764;9.164;2022-11-15T06:04:16;7.60;99.90
752;DHT22;360;48.764;9.164;2022-11-15T06:06:43;7.60;99.90
752;DHT22;360;48.764;9.164;2022-11-15T06:09:09;7.70;99.90
752;DHT22;360;48.764;9.164;2022-11-15T06:11:36;7.80;99.90
752;DHT22;360;48.764;9.164;2022-11-15T06:14:03;7.70;99.90
752;DHT22;360;48.764;9.164;2022-11-15T06:16:31;7.70;99.90
752;DHT22;360;48.764;9.164;2022-11-15T06:18:58;7.70;99.90
752;DHT22;360;48.764;9.164;2022-11-15T06:21:25;7.80;99.90
752;DHT22;360;48.764;9.164;2022-11-15T06:23:53;7.80;99.90
752;DHT22;360;48.764;9.164;2022-11-15T06:26:20;7.80;99.90
752;DHT22;360;48.764;9.164;2022-11-15T06:28:47;8.00;99.90
752;DHT22;360;48.764;9.164;2022-11-15T06:31:14;8.40;99.90
752;DHT22;360;48.764;9.164;2022-11-15T06:33:42;8.40;99.90
752;DHT22;360;48.764;9.164;2022-11-15T06:36:11;8.20;99.90
752;DHT22;360;48.764;9.164;2022-11-15T06:38:40;8.00;99.90
752;DHT22;360;48.764;9.164;2022-11-15T06:41:08;7.90;99.90
752;DHT22;360;48.764;9.164;2022-11-15T06:43:36;7.90;99.90
752;DHT22;360;48.764;9.164;2022-11-15T06:46:04;7.90;99.90
752;DHT22;360;48.764;9.164;2022-11-15T06:48:32;8.00;99.90
752;DHT22;360;48.764;9.164;2022-11-15T06:51:02;8.10;99.90
752;DHT22;360;48.764;9.164;2022-11-15T06:53:30;8.10;99.90
752;DHT22;360;48.764;9.164;2022-11-15T06:55:59;8.10;99.90
752;DHT22;360;48.764;9.164;2022-11-15T06:58:26;8.20;99.90
752;DHT22;360;48.764;9.164;2022-11-15T07:00:52;8.30;99.90
752;DHT22;360;48.764;9.164;2022-11-15T07:03:19;8.40;99.90
752;DHT22;360;48.764;9.164;2022-11-15T07:05:51;8.50;99.90
752;DHT22;360;48.764;9.164;2022-11-15T07:08:20;8.60;99.90
752;DHT22;360;48.764;9.164;2022-11-15T07:10:46;8.60;99.90
752;DHT22;360;48.764;9.164;2022-11-15T07:13:13;8.60;99.90
752;DHT22;360;48.764;9.164;2022-11-15T07:15:40;8.60;99.00
752;DHT22;360;48.764;9.164;2022-11-15T07:18:07;8.60;94.70
752;DHT22;360;48.764;9.164;2022-11-15T07:20:34;8.60;80.20
752;DHT22;360;48.764;9.164;2022-11-15T07:23:01;8.70;64.50
752;DHT22;360;48.764;9.164;2022-11-15T07:25:29;8.70;57.70
752;DHT22;360;48.764;9.164;2022-11-15T07:27:57;8.80;29.30
752;DHT22;360;48.764;9.164;2022-11-15T07:30:25;8.90;1.00
752;DHT22;360;48.764;9.164;2022-11-15T07:32:53;9.00;1.00
752;DHT22;360;48.764;9.164;2022-11-15T07:35:20;9.10;1.00
752;DHT22;360;48.764;9.164;2022-11-15T07:37:53;9.10;1.00
752;DHT22;360;48.764;9.164;2022-11-15T07:40:20;9.20;1.00
752;DHT22;360;48.764;9.164;2022-11-15T07:42:48;9.30;1.00
752;DHT22;360;48.764;9.164;2022-11-15T07:45:23;9.40;1.00
752;DHT22;360;48.764;9.164;2022-11-15T07:47:52;9.50;1.00
752;DHT22;360;48.764;9.164;2022-11-15T07:50:19;9.60;1.00
752;DHT22;360;48.764;9.164;2022-11-15T07:52:46;9.70;99.90
752;DHT22;360;48.764;9.164;2022-11-15T07:55:13;9.80;99.90
752;DHT22;360;48.764;9.164;2022-11-15T07:57:40;9.90;99.90
752;DHT22;360;48.764;9.164;2022-11-15T08:00:09;10.00;99.90
752;DHT22;360;48.764;9.164;2022-11-15T08:02:36;10.10;99.90
752;DHT22;360;48.764;9.164;2022-11-15T08:05:04;10.10;99.90
752;DHT22;360;48.764;9.164;2022-11-15T08:07:31;10.20;50.40
752;DHT22;360;48.764;9.164;2022-11-15T08:09:58;10.30;1.00
752;DHT22;360;48.764;9.164;2022-11-15T08:12:26;10.40;1.00
752;DHT22;360;48.764;9.164;2022-11-15T08:14:54;10.40;1.00
752;DHT22;360;48.764;9.164;2022-11-15T08:17:23;10.50;1.00
752;DHT22;360;48.764;9.164;2022-11-15T08:19:50;10.50;1.00
752;DHT22;360;48.764;9.164;2022-11-15T08:22:17;10.60;1.00
752;DHT22;360;48.764;9.164;2022-11-15T08:24:44;10.60;1.00
752;DHT22;360;48.764;9.164;2022-11-15T08:27:11;10.60;1.00
752;DHT22;360;48.764;9.164;2022-11-15T08:29:42;10.70;1.00
752;DHT22;360;48.764;9.164;2022-11-15T08:32:09;10.60;1.00
752;DHT22;360;48.764;9.164;2022-11-15T08:34:37;10.60;1.00
752;DHT22;360;48.764;9.164;2022-11-15T08:37:04;10.60;1.00
752;DHT22;360;48.764;9.164;2022-11-15T08:39:31;10.70;1.00
752;DHT22;360;48.764;9.164;2022-11-15T08:41:58;10.70;1.00
752;DHT22;360;48.764;9.164;2022-11-15T08:44:25;10.70;1.00
752;DHT22;360;48.764;9.164;2022-11-15T08:46:52;10.80;1.00
752;DHT22;360;48.764;9.164;2022-11-15T08:49:19;10.80;1.00
752;DHT22;360;48.764;9.164;2022-11-15T08:51:47;10.90;1.00
752;DHT22;360;48.764;9.164;2022-11-15T08:54:14;11.00;1.00
752;DHT22;360;48.764;9.164;2022-11-15T08:56:40;11.10;99.90
752;DHT22;360;48.764;9.164;2022-11-15T08:59:07;11.20;23.50
752;DHT22;360;48.764;9.164;2022-11-15T09:01:34;11.40;1.00
752;DHT22;360;48.764;9.164;2022-11-15T09:04:01;11.50;99.90
752;DHT22;360;48.764;9.164;2022-11-15T09:06:29;11.60;99.90
752;DHT22;360;48.764;9.164;2022-11-15T09:08:57;11.80;1.00
752;DHT22;360;48.764;9.164;2022-11-15T09:11:24;11.90;99.90
752;DHT22;360;48.764;9.164;2022-11-15T09:13:52;12.00;99.90
752;DHT22;360;48.764;9.164;2022-11-15T09:16:19;12.20;52.90
752;DHT22;360;48.764;9.164;2022-11-15T09:18:45;12.40;99.90
752;DHT22;360;48.764;9.164;2022-11-15T09:21:12;12.60;1.00
752;DHT22;360;48.764;9.164;2022-11-15T09:23:39;12.70;1.00
752;DHT22;360;48.764;9.164;2022-11-15T09:26:07;12.80;99.90
752;DHT22;360;48.764;9.164;2022-11-15T09:28:35;12.90;1.00
752;DHT22;360;48.764;9.164;2022-11-15T09:31:04;13.00;1.00
752;DHT22;360;48.764;9.164;2022-11-15T09:33:31;13.10;1.00
752;DHT22;360;48.764;9.164;2022-11-15T09:36:00;13.20;1.00
752;DHT22;360;48.764;9.164;2022-11-15T09:38:27;13.20;99.90
752;DHT22;360;48.764;9.164;2022-11-15T09:41:17;13.40;99.90
752;DHT22;360;48.764;9.164;2022-11-15T09:43:57;13.60;99.90
752;DHT22;360;48.764;9.164;2022-11-15T09:46:32;13.60;1.00
752;DHT22;360;48.764;9.164;2022-11-15T09:49:04;13.70;1.00
752;DHT22;360;48.764;9.164;2022-11-15T09:51:33;13.90;1.00
752;DHT22;360;48.764;9.164;2022-11-15T09:54:05;14.20;99.90
752;DHT22;360;48.764;9.164;2022-11-15T09:56:40;14.30;1.00
752;DHT22;360;48.764;9.164;2022-11-15T09:59:21;14.20;1.00
752;DHT22;360;48.764;9.164;2022-11-15T10:01:56;14.30;1.00
752;DHT22;360;48.764;9.164;2022-11-15T10:04:24;14.40;1.00
752;DHT22;360;48.764;9.164;2022-11-15T10:06:55;14.20;1.00
752;DHT22;360;48.764;9.164;2022-11-15T10:09:27;14.30;99.90
752;DHT22;360;48.764;9.164;2022-11-15T10:11:57;14.10;1.00
752;DHT22;360;48.764;9.164;2022-11-15T10:14:26;14.20;1.00
752;DHT22;360;48.764;9.164;2022-11-15T10:17:30;14.30;1.00
752;DHT22;360;48.764;9.164;2022-11-15T10:20:10;14.40;1.00
752;DHT22;360;48.764;9.164;2022-11-15T10:22:41;14.30;99.90
752;DHT22;360;48.764;9.164;2022-11-15T10:25:17;14.30;1.00
752;DHT22;360;48.764;9.164;2022-11-15T10:27:52;14.30;1.00
752;DHT22;360;48.764;9.164;2022-11-15T10:30:19;14.30;99.90
752;DHT22;360;48.764;9.164;2022-11-15T10:32:48;14.30;1.00
752;DHT22;360;48.764;9.164;2022-11-15T10:35:18;14.30;1.00
752;DHT22;360;48.764;9.164;2022-11-15T10:37:45;14.40;99.90
752;DHT22;360;48.764;9.164;2022-11-15T10:40:17;14.40;1.00
752;DHT22;360;48.764;9.164;2022-11-15T10:42:45;14.40;1.00
752;DHT22;360;48.764;9.164;2022-11-15T10:45:24;14.50;1.00
752;DHT22;360;48.764;9.164;2022-11-15T10:47:51;14.70;99.90
752;DHT22;360;48.764;9.164;2022-11-15T10:50:29;14.60;99.90
752;DHT22;360;48.764;9.164;2022-11-15T10:52:56;14.70;99.90
752;DHT22;360;48.764;9.164;2022-11-15T10:55:26;14.70;99.90
752;DHT22;360;48.764;9.164;2022-11-15T10:57:58;14.70;99.90
752;DHT22;360;48.764;9.164;2022-11-15T11:00:43;14.80;99.90
752;DHT22;360;48.764;9.164;2022-11-15T11:03:28;14.70;99.90
752;DHT22;360;48.764;9.164;2022-11-15T11:06:08;14.70;99.90
752;DHT22;360;48.764;9.164;2022-11-15T11:08:36;14.60;99.90
752;DHT22;360;48.764;9.164;2022-11-15T11:11:04;14.50;99.90
752;DHT22;360;48.764;9.164;2022-11-15T11:13:33;14.60;99.90
752;DHT22;360;48.764;9.164;2022-11-15T11:16:17;14.40;99.90
752;DHT22;360;48.764;9.164;2022-11-15T11:18:48;14.50;99.90
752;DHT22;360;48.764;9.164;2022-11-15T11:21:30;14.50;99.90
752;DHT22;360;48.764;9.164;2022-11-15T11:24:10;14.40;99.90
752;DHT22;360;48.764;9.164;2022-11-15T11:26:42;14.50;99.90
752;DHT22;360;48.764;9.164;2022-11-15T11:29:23;14.40;1.00
752;DHT22;360;48.764;9.164;2022-11-15T11:31:57;14.60;99.90
752;DHT22;360;48.764;9.164;2022-11-15T11:34:37;14.80;99.90
752;DHT22;360;48.764;9.164;2022-11-15T11:37:11;14.70;99.90
752;DHT22;360;48.764;9.164;2022-11-15T11:39:48;14.90;99.90
752;DHT22;360;48.764;9.164;2022-11-15T11:42:24;14.70;99.90
752;DHT22;360;48.764;9.164;2022-11-15T11:44:58;14.80;99.90
752;DHT22;360;48.764;9.164;2022-11-15T11:47:31;15.00;99.90
752;DHT22;360;48.764;9.164;2022-11-15T11:50:01;15.00;99.90
752;DHT22;360;48.764;9.164;2022-11-15T11:52:34;15.00;99.90
752;DHT22;360;48.764;9.164;2022-11-15T11:55:13;15.10;99.90
752;DHT22;360;48.764;9.164;2022-11-15T11:57:45;15.20;99.90
752;DHT22;360;48.764;9.164;2022-11-15T12:00:18;15.20;99.90
752;DHT22;360;48.764;9.164;2022-11-15T12:02:50;15.40;99.90
752;DHT22;360;48.764;9.164;2022-11-15T12:05:27;15.40;99.90
752;DHT22;360;48.764;9.164;2022-11-15T12:08:00;15.40;99.90
752;DHT22;360;48.764;9.164;2022-11-15T12:10:30;15.40;99.90
752;DHT22;360;48.764;9.164;2022-11-15T12:13:02;15.50;99.90
752;DHT22;360;48.764;9.164;2022-11-15T12:15:35;15.30;99.90
752;DHT22;360;48.764;9.164;2022-11-15T12:18:03;15.30;99.90
752;DHT22;360;48.764;9.164;2022-11-15T12:20:34;15.20;99.90
752;DHT22;360;48.764;9.164;2022-11-15T12:23:05;15.10;99.90
752;DHT22;360;48.764;9.164;2022-11-15T12:25:38;15.30;99.90
752;DHT22;360;48.764;9.164;2022-11-15T12:28:13;15.30;99.90
752;DHT22;360;48.764;9.164;2022-11-15T12:30:50;15.20;99.90
752;DHT22;360;48.764;9.164;2022-11-15T12:33:30;15.20;99.90
752;DHT22;360;48.764;9.164;2022-11-15T12:35:59;15.10;99.90
752;DHT22;360;48.764;9.164;2022-11-15T12:38:54;15.20;99.90
752;DHT22;360;48.764;9.164;2022-11-15T12:41:23;15.20;99.90
752;DHT22;360;48.764;9.164;2022-11-15T12:43:50;15.10;99.90
752;DHT22;360;48.764;9.164;2022-11-15T12:46:59;14.90;99.90
752;DHT22;360;48.764;9.164;2022-11-15T12:49:46;14.90;99.90
752;DHT22;360;48.764;9.164;2022-11-15T12:52:13;14.80;1.00
752;DHT22;360;48.764;9.164;2022-11-15T12:57:49;14.70;1.00
752;DHT22;360;48.764;9.164;2022-11-15T13:00:43;14.60;1.00
752;DHT22;360;48.764;9.164;2022-11-15T13:03:25;14.60;1.00
752;DHT22;360;48.764;9.164;2022-11-15T13:06:08;14.60;1.00
752;DHT22;360;48.764;9.164;2022-11-15T13:08:44;14.50;1.00
752;DHT22;360;48.764;9.164;2022-11-15T13:11:50;14.50;1.00
752;DHT22;360;48.764;9.164;2022-11-15T13:14:47;14.40;1.00
752;DHT22;360;48.764;9.164;2022-11-15T13:17:23;14.40;1.00
752;DHT22;360;48.764;9.164;2022-11-15T13:19:58;14.40;1.00
752;DHT22;360;48.764;9.164;2022-11-15T13:22:26;14.30;1.00
752;DHT22;360;48.764;9.164;2022-11-15T13:25:21;14.30;1.00
752;DHT22;360;48.764;9.164;2022-11-15T13:27:52;14.40;1.00
752;DHT22;360;48.764;9.164;2022-11-15T13:30:21;14.40;1.00
752;DHT22;360;48.764;9.164;2022-11-15T13:32:49;14.40;1.00
752;DHT22;360;48.764;9.164;2022-11-15T13:35:22;14.30;1.00
752;DHT22;360;48.764;9.164;2022-11-15T13:37:49;14.30;1.00
752;DHT22;360;48.764;9.164;2022-11-15T13:40:25;14.20;82.00
752;DHT22;360;48.764;9.164;2022-11-15T13:42:53;14.20;99.90
752;DHT22;360;48.764;9.164;2022-11-15T13:45:20;14.10;99.90
752;DHT22;360;48.764;9.164;2022-11-15T13:47:58;14.20;95.70
752;DHT22;360;48.764;9.164;2022-11-15T13:50:29;14.20;99.90
752;DHT22;360;48.764;9.164;2022-11-15T13:52:57;14.30;99.90
752;DHT22;360;48.764;9.164;2022-11-15T13:55:25;14.30;99.90
752;DHT22;360;48.764;9.164;2022-11-15T13:57:54;14.40;99.90
752;DHT22;360;48.764;9.164;2022-11-15T14:00:32;14.30;99.90
752;DHT22;360;48.764;9.164;2022-11-15T14:03:06;14.30;99.90
752;DHT22;360;48.764;9.164;2022-11-15T14:05:35;14.20;99.90
752;DHT22;360;48.764;9.164;2022-11-15T14:08:20;14.10;1.00
752;DHT22;360;48.764;9.164;2022-11-15T14:10:47;14.10;1.00
752;DHT22;360;48.764;9.164;2022-11-15T14:13:27;14.00;40.80
752;DHT22;360;48.764;9.164;2022-11-15T14:15:54;13.90;99.90
752;DHT22;360;48.764;9.164;2022-11-15T14:18:41;13.90;1.00
752;DHT22;360;48.764;9.164;2022-11-15T14:21:10;13.80;1.00
752;DHT22;360;48.764;9.164;2022-11-15T14:23:37;13.70;99.90
752;DHT22;360;48.764;9.164;2022-11-15T14:26:04;13.70;1.00
752;DHT22;360;48.764;9.164;2022-11-15T14:28:32;13.70;1.00
752;DHT22;360;48.764;9.164;2022-11-15T14:31:10;13.70;50.10
752;DHT22;360;48.764;9.164;2022-11-15T14:33:38;13.60;1.00
752;DHT22;360;48.764;9.164;2022-11-15T14:36:10;13.70;99.90
752;DHT22;360;48.764;9.164;2022-11-15T14:38:39;13.60;99.90
752;DHT22;360;48.764;9.164;2022-11-15T14:41:08;13.60;99.90
752;DHT22;360;48.764;9.164;2022-11-15T14:43:36;13.70;1.00
752;DHT22;360;48.764;9.164;2022-11-15T14:46:03;13.60;1.00
752;DHT22;360;48.764;9.164;2022-11-15T14:48:30;13.70;1.00
752;DHT22;360;48.764;9.164;2022-11-15T14:50:57;13.60;1.00
752;DHT22;360;48.764;9.164;2022-11-15T14:53:24;13.60;1.00
752;DHT22;360;48.764;9.164;2022-11-15T14:55:52;13.60;1.00
752;DHT22;360;48.764;9.164;2022-11-15T14:58:18;13.60;99.90
752;DHT22;360;48.764;9.164;2022-11-15T15:00:45;13.50;99.90
752;DHT22;360;48.764;9.164;2022-11-15T15:03:12;13.40;99.90
752;DHT22;360;48.764;9.164;2022-11-15T15:05:41;13.40;1.00
752;DHT22;360;48.764;9.164;2022-11-15T15:08:09;13.30;1.00
752;DHT22;360;48.764;9.164;2022-11-15T15:10:37;13.30;1.00
752;DHT22;360;48.764;9.164;2022-11-15T15:13:08;13.30;26.70
752;DHT22;360;48.764;9.164;2022-11-15T15:15:38;13.20;1.00
752;DHT22;360;48.764;9.164;2022-11-15T15:18:05;13.20;1.00
752;DHT22;360;48.764;9.164;2022-11-15T15:20:34;13.20;1.10
752;DHT22;360;48.764;9.164;2022-11-15T15:23:01;13.20;1.00
752;DHT22;360;48.764;9.164;2022-11-15T15:25:30;13.10;1.00
752;DHT22;360;48.764;9.164;2022-11-15T15:27:58;13.10;99.90
752;DHT22;360;48.764;9.164;2022-11-15T15:30:28;13.10;1.00
752;DHT22;360;48.764;9.164;2022-11-15T15:32:55;13.00;1.00
752;DHT22;360;48.764;9.164;2022-11-15T15:35:22;13.10;1.00
752;DHT22;360;48.764;9.164;2022-11-15T15:37:50;13.00;99.90
752;DHT22;360;48.764;9.164;2022-11-15T15:40:18;13.00;99.90
752;DHT22;360;48.764;9.164;2022-11-15T15:42:46;12.90;99.90
752;DHT22;360;48.764;9.164;2022-11-15T15:45:14;12.90;1.00
752;DHT22;360;48.764;9.164;2022-11-15T15:47:43;12.90;1.00
752;DHT22;360;48.764;9.164;2022-11-15T15:50:18;12.80;28.00
752;DHT22;360;48.764;9.164;2022-11-15T15:52:46;12.80;32.20
752;DHT22;360;48.764;9.164;2022-11-15T15:55:13;12.70;1.00
752;DHT22;360;48.764;9.164;2022-11-15T15:57:40;12.60;10.10
752;DHT22;360;48.764;9.164;2022-11-15T16:00:08;12.70;1.00
752;DHT22;360;48.764;9.164;2022-11-15T16:02:35;12.60;99.90
752;DHT22;360;48.764;9.164;2022-11-15T16:05:04;12.60;1.00
752;DHT22;360;48.764;9.164;2022-11-15T16:07:31;12.60;1.00
752;DHT22;360;48.764;9.164;2022-11-15T16:09:58;12.60;99.90
752;DHT22;360;48.764;9.164;2022-11-15T16:12:29;12.60;1.00
752;DHT22;360;48.764;9.164;2022-11-15T16:14:55;12.60;1.00
752;DHT22;360;48.764;9.164;2022-11-15T16:17:25;12.60;1.00
752;DHT22;360;48.764;9.164;2022-11-15T16:19:52;12.50;99.90
752;DHT22;360;48.764;9.164;2022-11-15T16:22:20;12.50;99.90
752;DHT22;360;48.764;9.164;2022-11-15T16:24:47;12.60;1.00
752;DHT22;360;48.764;9.164;2022-11-15T16:27:14;12.50;1.00
752;DHT22;360;48.764;9.164;2022-11-15T16:29:42;12.50;84.40
752;DHT22;360;48.764;9.164;2022-11-15T16:32:09;12.50;99.90
752;DHT22;360;48.764;9.164;2022-11-15T16:34:36;12.50;99.90
752;DHT22;360;48.764;9.164;2022-11-15T16:37:03;12.50;99.90
752;DHT22;360;48.764;9.164;2022-11-15T16:39:31;12.50;99.90
752;DHT22;360;48.764;9.164;2022-11-15T16:41:58;12.50;99.90
752;DHT22;360;48.764;9.164;2022-11-15T16:44:25;12.50;61.50
752;DHT22;360;48.764;9.164;2022-11-15T16:46:52;12.40;99.90
752;DHT22;360;48.764;9.164;2022-11-15T16:49:20;12.40;1.00
752;DHT22;360;48.764;9.164;2022-11-15T16:51:48;12.30;1.00
752;DHT22;360;48.764;9.164;2022-11-15T16:54:15;12.30;1.00
752;DHT22;360;48.764;9.164;2022-11-15T16:56:44;12.30;1.00
752;DHT22;360;48.764;9.164;2022-11-15T16:59:14;12.20;1.00
752;DHT22;360;48.764;9.164;2022-11-15T17:01:42;12.20;1.00
752;DHT22;360;48.764;9.164;2022-11-15T17:04:15;12.20;1.00
752;DHT22;360;48.764;9.164;2022-11-15T17:06:43;12.10;1.00
752;DHT22;360;48.764;9.164;2022-11-15T17:09:12;12.10;1.00
752;DHT22;360;48.764;9.164;2022-11-15T17:11:40;12.20;1.00